Time;durP1;ratioP1;P1;durP2;ratioP2;P2;SDS_P1;SDS_P2;PMS_P1;PMS_P2;Temp;Humidity;BMP_temperature;BMP_pressure;BME280_temperature;BME280_humidity;BME280_pressure;Samples;Min_cycle;Max_cycle;Signal;HPM_P1;HPM_P2
2022/11/11 00:00:21;;;;;;;0.90;0.88;;;;;;;10.38;64.77;102339.94;5119949;28;20122;-82
2022/11/11 00:02:54;;;;;;;0.30;0.30;;;;;;;10.33;65.34;102328.56;5103983;28;20054;-82
2022/11/11 00:05:26;;;;;;;0.38;0.38;;;;;;;10.43;65.08;102334.69;5120669;28;20474;-82
2022/11/11 00:07:59;;;;;;;0.80;0.80;;;;;;;10.39;64.98;102333.84;5120873;28;20058;-82
2022/11/11 00:10:30;;;;;;;0.82;0.82;;;;;;;10.46;64.87;102339.06;5104557;29;20026;-82
2022/11/11 00:13:11;;;;;;;0.55;0.55;;;;;;;10.42;65.00;102345.22;5123890;28;20071;-82
2022/11/11 00:15:41;;;;;;;0.45;0.45;;;;;;;10.34;64.94;102348.69;5106231;28;20035;-81
2022/11/11 00:26:39;;;;;;;0.32;0.32;;;;;;;10.35;65.55;102367.91;5120341;29;20054;-81
2022/11/11 00:29:10;;;;;;;2.15;1.17;;;;;;;10.26;65.62;102378.38;5115054;28;20086;-81
2022/11/11 00:34:31;;;;;;;0.80;0.80;;;;;;;10.17;65.47;102371.41;5134032;28;20040;-82
2022/11/11 00:37:02;;;;;;;0.30;0.30;;;;;;;10.19;65.56;102372.28;5129306;28;20106;-81
2022/11/11 00:39:33;;;;;;;0.77;0.77;;;;;;;10.15;64.75;102360.91;5121240;28;20074;-81
2022/11/11 00:42:03;;;;;;;0.75;0.63;;;;;;;10.20;65.38;102361.78;5092992;29;20020;-82
2022/11/11 00:44:33;;;;;;;0.35;0.35;;;;;;;10.18;65.16;102366.16;5104016;28;20067;-83
2022/11/11 00:52:45;;;;;;;0.73;0.73;;;;;;;10.10;64.88;102357.41;5118085;28;20051;-81
2022/11/11 00:55:16;;;;;;;1.25;0.82;;;;;;;9.98;65.69;102354.78;5120129;28;20463;-82
2022/11/11 00:57:46;;;;;;;0.55;0.55;;;;;;;9.95;65.68;102358.28;5103177;28;20058;-81
2022/11/11 01:00:17;;;;;;;0.45;0.45;;;;;;;9.97;65.17;102358.25;5102695;29;20108;-82
2022/11/11 01:02:48;;;;;;;0.40;0.40;;;;;;;9.97;64.87;102361.75;5102291;28;20042;-81
2022/11/11 01:05:18;;;;;;;0.40;0.40;;;;;;;9.91;65.40;102367.00;5118366;28;20243;-82
2022/11/11 01:07:49;;;;;;;0.43;0.43;;;;;;;9.89;64.81;102374.84;5117920;28;20193;-81
2022/11/11 01:13:21;;;;;;;0.50;0.50;;;;;;;9.86;65.39;102381.84;5119693;28;20071;-81
2022/11/11 01:15:58;;;;;;;0.77;0.77;;;;;;;9.84;65.07;102394.94;5107888;29;20655;-82
2022/11/11 01:18:28;;;;;;;0.40;0.40;;;;;;;9.79;65.28;102394.06;5122927;28;20058;-81
2022/11/11 01:21:03;;;;;;;0.60;0.60;;;;;;;9.87;64.82;102388.84;5123701;28;20035;-82
2022/11/11 01:23:44;;;;;;;0.55;0.55;;;;;;;9.80;64.86;102387.03;5122039;28;20162;-82
2022/11/11 01:26:18;;;;;;;1.38;1.27;;;;;;;9.76;65.50;102388.78;5124459;28;20073;-81
2022/11/11 01:28:49;;;;;;;0.50;0.50;;;;;;;9.70;65.43;102394.91;5119062;28;20039;-82
2022/11/11 01:31:23;;;;;;;1.35;0.55;;;;;;;9.75;65.15;102387.94;5088562;28;20023;-81
2022/11/11 01:33:54;;;;;;;1.25;0.95;;;;;;;9.71;65.34;102386.16;5102560;28;20513;-80
2022/11/11 01:36:26;;;;;;;0.30;0.30;;;;;;;9.64;65.07;102381.75;5124775;28;20057;-81
2022/11/11 01:38:59;;;;;;;0.70;0.70;;;;;;;9.67;65.52;102381.78;5124942;28;20113;-80
2022/11/11 01:41:32;;;;;;;0.47;0.47;;;;;;;9.61;65.61;102390.50;5114261;29;20350;-83
2022/11/11 01:44:06;;;;;;;0.88;0.88;;;;;;;9.53;65.74;102392.22;5129995;28;20085;-82
2022/11/11 01:46:45;;;;;;;1.85;1.38;;;;;;;9.56;65.65;102388.72;5108516;29;20298;-81
2022/11/11 01:49:28;;;;;;;0.40;0.40;;;;;;;9.58;65.14;102395.75;5125043;28;20036;-81
2022/11/11 01:52:06;;;;;;;0.40;0.40;;;;;;;9.54;65.69;102395.72;5123736;28;20042;-81
2022/11/11 01:54:42;;;;;;;0.40;0.40;;;;;;;9.53;65.13;102388.72;5108491;28;20065;-82
2022/11/11 01:57:41;;;;;;;0.80;0.80;;;;;;;9.57;65.36;102390.47;5144230;28;20027;-81
2022/11/11 02:00:15;;;;;;;0.60;0.60;;;;;;;9.54;65.39;102390.47;5118993;29;20093;-82
2022/11/11 02:02:52;;;;;;;;;;;;;;;9.47;65.36;102399.16;5121195;28;20239;-81
2022/11/11 02:05:42;;;;;;;0.50;0.50;;;;;;;9.50;65.15;102405.31;5118083;29;19906;-83
2022/11/11 02:08:32;;;;;;;0.30;0.30;;;;;;;9.43;65.37;102409.66;5126418;28;20116;-81
2022/11/11 02:11:13;;;;;;;0.60;0.60;;;;;;;9.47;65.05;102405.28;5118433;28;20028;-81
2022/11/11 02:16:32;;;;;;;0.30;0.30;;;;;;;9.43;64.93;102399.16;5135743;28;20118;-82
2022/11/11 02:19:06;;;;;;;0.38;0.38;;;;;;;9.39;65.29;102391.28;5141318;28;20673;-82
2022/11/11 02:21:48;;;;;;;0.45;0.45;;;;;;;9.36;65.74;102392.16;5122729;28;20069;-82
2022/11/11 02:24:20;;;;;;;0.30;0.30;;;;;;;9.29;65.37;102391.22;5144027;28;20046;-80
2022/11/11 02:26:52;;;;;;;0.30;0.30;;;;;;;9.32;65.39;102390.38;5157510;28;20062;-81
2022/11/11 02:29:23;;;;;;;0.90;0.90;;;;;;;9.36;65.35;102380.78;5124521;28;20047;-81
2022/11/11 02:31:54;;;;;;;0.90;0.88;;;;;;;9.33;65.56;102388.63;5141656;28;20568;-81
2022/11/11 02:34:32;;;;;;;0.85;0.85;;;;;;;9.29;65.43;102380.75;5142944;28;20046;-82
2022/11/11 02:37:09;;;;;;;0.50;0.50;;;;;;;9.28;65.32;102386.84;5125060;28;20738;-81
2022/11/11 02:39:44;;;;;;;0.30;0.30;;;;;;;9.31;64.87;102393.84;5118229;28;20054;-81
2022/11/11 02:42:18;;;;;;;1.98;0.93;;;;;;;9.25;65.34;102385.97;5140642;28;20134;-81
2022/11/11 02:44:49;;;;;;;0.30;0.30;;;;;;;9.18;65.53;102378.94;5144471;28;20045;-81
2022/11/11 02:47:19;;;;;;;0.30;0.30;;;;;;;9.23;65.30;102380.72;5148220;28;20039;-82
2022/11/11 02:49:50;;;;;;;0.65;0.57;;;;;;;9.20;65.17;102380.69;5122849;28;20070;-81
2022/11/11 02:52:21;;;;;;;0.30;0.30;;;;;;;9.17;65.48;102374.56;5140145;28;20489;-82
2022/11/11 02:54:51;;;;;;;0.40;0.40;;;;;;;9.17;65.32;102369.34;5130535;28;20051;-81
2022/11/11 02:57:22;;;;;;;1.50;0.95;;;;;;;9.13;65.39;102368.44;5140588;28;20042;-80
2022/11/11 02:59:53;;;;;;;1.45;0.93;;;;;;;9.15;65.37;102374.56;5121545;28;20043;-81
2022/11/11 03:02:26;;;;;;;0.30;0.30;;;;;;;9.05;65.65;102370.16;5138174;28;20043;-82
2022/11/11 03:04:57;;;;;;;0.43;0.43;;;;;;;9.05;65.49;102381.47;5105814;28;20133;-81
2022/11/11 03:07:27;;;;;;;1.17;1.17;;;;;;;9.02;65.53;102383.22;5132993;28;20477;-81
2022/11/11 03:09:58;;;;;;;0.70;0.70;;;;;;;9.00;65.93;102388.44;5161264;28;20046;-82
2022/11/11 03:12:28;;;;;;;2.22;2.10;;;;;;;9.01;65.54;102391.97;5113732;28;20015;-82
2022/11/11 03:14:59;;;;;;;0.98;0.98;;;;;;;9.04;65.59;102389.34;5131505;28;20054;-82
2022/11/11 03:17:38;;;;;;;0.40;0.40;;;;;;;9.05;65.27;102386.72;5127524;28;20038;-81
2022/11/11 03:23:14;;;;;;;0.98;0.98;;;;;;;9.04;65.21;102379.75;5125187;28;20066;-81
2022/11/11 03:25:47;;;;;;;0.90;0.90;;;;;;;9.00;65.91;102385.81;5118708;28;20564;-81
2022/11/11 03:28:19;;;;;;;0.40;0.40;;;;;;;9.04;65.32;102384.09;5139681;28;20042;-82
2022/11/11 03:30:50;;;;;;;0.65;0.65;;;;;;;8.99;65.53;102386.69;5141317;28;20043;-80
2022/11/11 03:33:20;;;;;;;0.70;0.70;;;;;;;9.01;65.38;102384.09;5127431;28;20563;-81
2022/11/11 03:35:51;;;;;;;1.33;1.30;;;;;;;8.97;65.40;102377.94;5141467;28;20129;-81
2022/11/11 03:38:24;;;;;;;0.50;0.50;;;;;;;8.98;65.66;102379.69;5125465;28;20051;-81
2022/11/11 03:40:56;;;;;;;0.30;0.30;;;;;;;8.97;65.38;102388.41;5148340;28;20379;-81
2022/11/11 03:43:32;;;;;;;0.40;0.40;;;;;;;8.97;65.25;102383.19;5142540;28;20124;-81
2022/11/11 03:46:08;;;;;;;0.43;0.43;;;;;;;8.94;65.08;102386.66;5142039;28;20562;-80
2022/11/11 03:48:39;;;;;;;0.70;0.70;;;;;;;8.93;65.31;102376.19;5123741;28;20555;-81
2022/11/11 03:51:09;;;;;;;0.60;0.60;;;;;;;8.94;64.75;102368.34;5118994;28;20043;-80
2022/11/11 03:53:40;;;;;;;0.43;0.43;;;;;;;8.90;65.32;102370.91;5142566;28;20054;-79
2022/11/11 03:56:10;;;;;;;0.50;0.50;;;;;;;8.85;65.29;102370.88;5118114;28;20027;-80
2022/11/11 03:58:41;;;;;;;0.47;0.47;;;;;;;8.82;65.22;102361.28;5139868;28;20059;-81
2022/11/11 04:11:13;;;;;;;0.30;0.30;;;;;;;8.79;65.26;102373.47;5128205;28;20170;-81
2022/11/11 04:16:36;;;;;;;0.50;0.50;;;;;;;8.73;64.86;102369.06;5126049;28;20062;-80
2022/11/11 04:21:55;;;;;;;0.40;0.40;;;;;;;8.64;65.34;102389.94;5158081;28;20185;-80
2022/11/11 04:27:17;;;;;;;1.15;1.10;;;;;;;8.63;65.51;102377.75;5141030;28;20035;-80
2022/11/11 04:29:50;;;;;;;0.70;0.70;;;;;;;8.54;65.96;102380.28;5121146;28;20042;-81
2022/11/11 04:32:41;;;;;;;0.57;0.57;;;;;;;8.50;65.54;102377.63;5138158;28;20027;-81
2022/11/11 04:35:13;;;;;;;0.40;0.40;;;;;;;8.56;65.22;102386.38;5123214;28;20055;-80
2022/11/11 04:41:02;;;;;;;7.22;1.65;;;;;;;8.49;65.58;102391.56;5138155;28;20047;-81
2022/11/11 04:45:26;;;;;;;1.42;1.33;;;;;;;8.52;65.01;102389.84;5140757;28;20031;-80
2022/11/11 04:46:27;;;;;;;0.30;0.30;;;;;;;8.50;65.23;102393.31;5142000;28;20058;-80
2022/11/11 04:48:57;;;;;;;0.65;0.65;;;;;;;8.46;65.37;102391.53;5141211;28;20046;-80
2022/11/11 04:52:25;;;;;;;0.63;0.63;;;;;;;8.48;65.50;102395.03;5149808;28;20030;-80
2022/11/11 04:54:18;;;;;;;0.40;0.40;;;;;;;8.44;65.14;102393.25;5144003;28;20116;-79
2022/11/11 04:56:49;;;;;;;0.45;0.45;;;;;;;8.47;64.89;102392.41;5141889;28;20034;-80
2022/11/11 04:59:20;;;;;;;0.40;0.40;;;;;;;8.36;65.31;102397.53;5123585;28;20094;-80
2022/11/11 05:04:40;;;;;;;0.60;0.60;;;;;;;8.36;65.38;102384.47;5123496;28;20388;-80
2022/11/11 05:10:00;;;;;;;1.00;1.00;;;;;;;8.35;65.08;102387.94;5162321;28;20051;-82
2022/11/11 05:12:30;;;;;;;0.40;0.40;;;;;;;8.31;64.90;102389.66;5124101;28;20054;-80
2022/11/11 05:21:19;;;;;;;0.50;0.50;;;;;;;8.24;65.54;102385.22;5136603;28;20525;-81
2022/11/11 05:26:27;;;;;;;0.55;0.55;;;;;;;8.13;65.80;102377.28;5142670;28;20081;-81
2022/11/11 05:28:58;;;;;;;0.47;0.47;;;;;;;8.18;65.45;102375.56;5120869;28;20270;-81
2022/11/11 05:31:29;;;;;;;0.43;0.43;;;;;;;8.13;65.59;102366.81;5139855;28;20065;-81
2022/11/11 05:34:00;;;;;;;0.90;0.82;;;;;;;8.12;65.81;102365.06;5126617;28;20051;-81
2022/11/11 05:36:33;;;;;;;0.35;0.35;;;;;;;8.08;65.81;102378.94;5115369;28;20117;-80
2022/11/11 05:39:12;;;;;;;0.60;0.60;;;;;;;8.09;65.80;102382.47;5115387;28;20186;-82
2022/11/11 05:41:46;;;;;;;0.40;0.40;;;;;;;8.07;66.11;102389.41;5163040;28;20069;-82
2022/11/11 05:44:16;;;;;;;0.32;0.32;;;;;;;8.03;66.08;102391.97;5153855;28;20078;-80
2022/11/11 05:46:47;;;;;;;0.40;0.40;;;;;;;7.99;66.24;102400.66;5129470;28;20458;-81
2022/11/11 05:49:21;;;;;;;0.70;0.70;;;;;;;7.95;66.25;102400.63;5143111;28;20094;-83
2022/11/11 05:51:54;;;;;;;0.50;0.50;;;;;;;8.01;66.31;102413.75;5141735;28;20037;-83
2022/11/11 05:54:25;;;;;;;0.40;0.40;;;;;;;8.02;66.13;102410.28;5095926;28;20050;-82
2022/11/11 05:56:56;;;;;;;0.40;0.40;;;;;;;8.06;65.90;102414.66;5140004;28;20035;-82
2022/11/11 05:59:26;;;;;;;0.88;0.88;;;;;;;8.01;65.38;102419.88;5124395;28;20065;-81
2022/11/11 06:01:57;;;;;;;1.13;1.02;;;;;;;8.00;66.19;102417.22;5136946;28;20042;-81
2022/11/11 06:04:28;;;;;;;1.17;1.08;;;;;;;8.02;65.85;102424.19;5136314;28;20050;-79
2022/11/11 06:06:58;;;;;;;0.40;0.40;;;;;;;7.98;66.37;102425.03;5137895;28;20635;-82
2022/11/11 06:09:29;;;;;;;0.40;0.40;;;;;;;7.99;66.13;102426.81;5123592;28;20564;-82
2022/11/11 06:12:00;;;;;;;2.15;1.35;;;;;;;7.94;66.67;102432.84;5126988;28;20066;-81
2022/11/11 06:14:48;;;;;;;0.88;0.88;;;;;;;7.93;66.28;102431.06;5123393;28;20113;-81
2022/11/11 06:17:19;;;;;;;0.30;0.30;;;;;;;7.93;66.33;102437.19;5129907;28;20066;-79
2022/11/11 06:19:49;;;;;;;0.57;0.57;;;;;;;7.94;66.23;102435.44;5109133;28;20541;-82
2022/11/11 06:22:55;;;;;;;0.40;0.40;;;;;;;7.90;66.91;102438.88;5156276;28;20046;-79
2022/11/11 06:28:11;;;;;;;0.60;0.60;;;;;;;7.92;66.55;102440.66;5099184;28;20541;-81
2022/11/11 06:30:42;;;;;;;0.50;0.50;;;;;;;7.94;66.53;102438.94;5098850;29;20038;-80
2022/11/11 06:33:12;;;;;;;1.50;1.40;;;;;;;7.88;67.01;102444.97;5117980;28;20497;-83
2022/11/11 06:35:44;;;;;;;0.47;0.47;;;;;;;7.86;66.53;102440.56;5090953;28;20082;-79
2022/11/11 06:38:15;;;;;;;0.63;0.63;;;;;;;7.87;66.51;102443.22;5137278;28;20069;-82
2022/11/11 06:40:46;;;;;;;1.00;0.90;;;;;;;7.85;67.47;102439.72;5106021;29;20027;-80
2022/11/11 06:43:16;;;;;;;0.35;0.35;;;;;;;7.88;66.54;102442.38;5121364;28;20526;-81
2022/11/11 06:45:52;;;;;;;0.40;0.40;;;;;;;7.90;66.94;102442.38;5135912;28;20031;-78
2022/11/11 06:48:24;;;;;;;0.40;0.40;;;;;;;7.87;66.75;102443.22;5116479;28;20043;-83
2022/11/11 06:51:01;;;;;;;0.40;0.40;;;;;;;7.84;66.90;102445.78;5101640;29;20031;-78
2022/11/11 06:53:32;;;;;;;2.65;1.20;;;;;;;7.85;66.86;102444.06;5090482;29;20543;-80
2022/11/11 06:56:02;;;;;;;0.50;0.50;;;;;;;7.79;67.71;102450.09;5120783;28;20086;-80
2022/11/11 06:58:34;;;;;;;0.30;0.30;;;;;;;7.77;67.88;102451.81;5101423;28;20228;-81
2022/11/11 07:01:07;;;;;;;0.40;0.40;;;;;;;7.80;67.41;102453.56;5104814;28;20249;-81
2022/11/11 07:03:37;;;;;;;0.32;0.32;;;;;;;7.81;67.17;102456.19;5085333;29;20044;-80
2022/11/11 07:06:08;;;;;;;1.42;1.33;;;;;;;7.82;67.26;102462.31;5088503;29;20042;-80
2022/11/11 07:08:43;;;;;;;0.40;0.40;;;;;;;7.84;67.48;102464.09;5101157;29;20036;-80
2022/11/11 07:11:13;;;;;;;0.50;0.50;;;;;;;7.86;67.45;102467.59;5117053;28;20512;-81
2022/11/11 07:13:44;;;;;;;0.40;0.40;;;;;;;7.90;66.99;102462.38;5102224;29;20054;-80
2022/11/11 07:16:14;;;;;;;0.60;0.60;;;;;;;7.91;66.97;102470.28;5110645;29;20086;-80
2022/11/11 07:18:45;;;;;;;4.95;1.27;;;;;;;7.88;67.11;102473.72;5132672;28;20039;-80
2022/11/11 07:21:15;;;;;;;0.68;0.68;;;;;;;7.94;66.93;102469.44;5101649;28;20049;-80
2022/11/11 07:23:46;;;;;;;0.22;0.22;;;;;;;7.92;67.38;102473.75;5110356;28;20526;-82
2022/11/11 07:26:16;;;;;;;1.75;0.73;;;;;;;7.90;67.32;102472.84;5144252;28;20023;-79
2022/11/11 07:28:49;;;;;;;0.30;0.30;;;;;;;7.94;67.14;102469.44;5128390;28;20050;-80
2022/11/11 07:31:20;;;;;;;0.47;0.47;;;;;;;7.93;67.00;102479.00;5137458;28;20529;-80
2022/11/11 07:33:50;;;;;;;0.63;0.60;;;;;;;7.92;67.22;102482.50;5112943;28;20370;-80
2022/11/11 07:36:21;;;;;;;0.57;0.57;;;;;;;7.97;67.17;102486.03;5120387;28;20028;-80
2022/11/11 07:38:51;;;;;;;0.60;0.50;;;;;;;8.03;66.85;102487.84;5137639;28;20546;-78
2022/11/11 07:41:22;;;;;;;0.65;0.65;;;;;;;7.99;67.21;102488.66;5136020;28;20120;-78
2022/11/11 07:43:53;;;;;;;0.60;0.60;;;;;;;8.02;67.64;102491.31;5136387;28;20086;-80
2022/11/11 07:46:23;;;;;;;0.60;0.60;;;;;;;8.02;67.22;102502.63;5118183;28;20034;-79
2022/11/11 07:48:54;;;;;;;0.95;0.52;;;;;;;8.04;67.54;102500.06;5115167;28;20027;-79
2022/11/11 07:51:24;;;;;;;0.70;0.70;;;;;;;8.01;68.07;102500.00;5138172;28;20542;-80
2022/11/11 07:53:55;;;;;;;0.52;0.52;;;;;;;8.05;67.60;102499.19;5126578;28;20522;-81
2022/11/11 07:56:25;;;;;;;0.52;0.52;;;;;;;8.02;68.38;102513.09;5124348;28;20512;-79
2022/11/11 07:58:56;;;;;;;0.82;0.82;;;;;;;8.03;68.56;102511.38;5120887;28;20081;-79
2022/11/11 08:01:26;;;;;;;1.02;0.95;;;;;;;8.06;68.68;102516.59;5121296;28;20034;-82
2022/11/11 08:03:57;;;;;;;0.40;0.40;;;;;;;8.07;68.69;102518.38;5133138;28;20046;-82
2022/11/11 08:06:28;;;;;;;0.93;0.93;;;;;;;8.13;68.37;102523.69;5104887;28;20030;-80
2022/11/11 08:08:59;;;;;;;2.33;1.35;;;;;;;8.16;68.27;102521.09;5119370;28;20050;-80
2022/11/11 08:14:40;;;;;;;0.40;0.40;;;;;;;8.27;67.81;102525.59;5128018;28;20138;-81
2022/11/11 08:17:10;;;;;;;0.40;0.40;;;;;;;8.30;67.78;102518.66;5134536;28;20089;-81
2022/11/11 08:19:41;;;;;;;0.52;0.52;;;;;;;8.35;67.56;102523.94;5133135;28;20074;-79
2022/11/11 08:22:14;;;;;;;5.68;1.38;;;;;;;8.34;68.42;102519.56;5146417;28;20113;-82
2022/11/11 08:24:47;;;;;;;0.60;0.60;;;;;;;8.38;69.02;102529.22;5136967;28;20054;-81
2022/11/11 08:27:21;;;;;;;0.40;0.40;;;;;;;8.36;69.22;102523.06;5141714;28;20046;-80
2022/11/11 08:29:51;;;;;;;0.85;0.85;;;;;;;8.45;70.13;102524.91;5109707;28;20054;-81
2022/11/11 08:32:22;;;;;;;0.50;0.50;;;;;;;8.42;70.28;102533.59;5142105;28;20054;-80
2022/11/11 08:34:52;;;;;;;2.38;1.15;;;;;;;8.57;69.41;102529.41;5109279;28;20045;-81
2022/11/11 08:37:23;;;;;;;0.60;0.60;;;;;;;8.50;71.81;102531.13;5140565;28;20041;-79
2022/11/11 08:39:53;;;;;;;0.47;0.47;;;;;;;8.57;71.87;102522.47;5120304;28;20129;-79
2022/11/11 08:42:24;;;;;;;0.30;0.30;;;;;;;8.56;71.22;102519.81;5110342;28;21122;-81
2022/11/11 08:44:54;;;;;;;0.30;0.30;;;;;;;8.64;71.33;102520.75;5139346;28;20185;-80
2022/11/11 08:47:25;;;;;;;0.30;0.30;;;;;;;8.63;72.03;102519.91;5125314;28;20050;-81
2022/11/11 08:49:58;;;;;;;0.30;0.30;;;;;;;8.65;71.04;102518.19;5139575;28;20122;-81
2022/11/11 08:52:29;;;;;;;0.50;0.50;;;;;;;8.71;71.23;102521.72;5142433;28;20041;-81
2022/11/11 08:54:59;;;;;;;1.20;0.82;;;;;;;8.75;71.84;102524.38;5140404;28;20039;-81
2022/11/11 08:57:30;;;;;;;0.60;0.60;;;;;;;8.79;71.11;102520.94;5143578;28;20038;-81
2022/11/11 09:00:03;;;;;;;0.50;0.50;;;;;;;8.80;71.17;102517.44;5126587;28;20552;-80
2022/11/11 09:02:34;;;;;;;0.40;0.40;;;;;;;8.86;72.62;102521.84;5144151;28;20027;-80
2022/11/11 09:05:05;;;;;;;0.63;0.63;;;;;;;8.88;72.29;102525.38;5144998;28;20042;-81
2022/11/11 09:07:36;;;;;;;0.50;0.50;;;;;;;8.92;71.72;102527.16;5121407;28;20034;-81
2022/11/11 09:10:07;;;;;;;0.30;0.30;;;;;;;8.97;71.71;102529.78;5123907;28;21048;-80
2022/11/11 09:12:38;;;;;;;0.30;0.30;;;;;;;9.04;72.15;102528.13;5110364;28;20674;-81
2022/11/11 09:15:09;;;;;;;0.38;0.38;;;;;;;9.12;72.36;102532.56;5141993;28;20030;-80
2022/11/11 09:17:51;;;;;;;2.47;1.35;;;;;;;9.17;72.11;102536.94;5120830;28;20031;-81
2022/11/11 09:20:22;;;;;;;0.30;0.30;;;;;;;9.17;72.60;102529.09;5141955;28;20106;-80
2022/11/11 09:22:53;;;;;;;0.30;0.30;;;;;;;9.19;72.59;102530.84;5125619;28;20104;-81
2022/11/11 09:25:23;;;;;;;1.23;1.13;;;;;;;9.25;72.32;102524.78;5138292;28;20027;-81
2022/11/11 09:27:56;;;;;;;0.40;0.40;;;;;;;9.34;71.62;102531.84;5154453;28;20030;-81
2022/11/11 09:30:27;;;;;;;0.30;0.30;;;;;;;9.37;71.96;102532.75;5159745;28;20098;-81
2022/11/11 09:33:12;;;;;;;;;;;;;;;;;;;;;
2022/11/11 09:35:52;;;;;;;2.78;1.42;;;;;;;9.44;72.18;102521.44;5125424;28;20026;-80
2022/11/11 09:38:27;;;;;;;0.40;0.40;;;;;;;9.49;72.05;102521.47;5147027;28;20690;-82
2022/11/11 09:41:17;;;;;;;2.35;0.82;;;;;;;9.53;71.82;102525.84;5109396;28;20043;-80
2022/11/11 09:46:56;;;;;;;0.30;0.30;;;;;;;9.71;70.84;102534.69;5141318;28;20061;-80
2022/11/11 09:49:38;;;;;;;0.68;0.68;;;;;;;9.67;71.78;102528.56;5158926;28;20046;-81
2022/11/11 09:52:23;;;;;;;3.03;1.75;;;;;;;9.74;70.95;102532.09;5127880;28;20196;-81
2022/11/11 09:55:18;;;;;;;0.55;0.55;;;;;;;9.84;71.51;102525.16;5143245;28;20098;-81
2022/11/11 09:57:57;;;;;;;0.60;0.60;;;;;;;9.81;71.85;102527.75;5140649;28;20433;-80
2022/11/11 10:00:37;;;;;;;1.27;0.65;;;;;;;9.89;71.28;102523.41;5124434;28;20772;-80
2022/11/11 10:03:25;;;;;;;0.32;0.32;;;;;;;9.96;71.09;102534.81;5118058;28;20502;-80
2022/11/11 10:06:12;;;;;;;0.20;0.20;;;;;;;9.98;71.35;102531.31;5155076;28;20498;-79
2022/11/11 10:09:01;;;;;;;0.25;0.25;;;;;;;10.03;71.68;102537.50;5118643;28;20113;-80
2022/11/11 10:11:38;;;;;;;0.30;0.30;;;;;;;10.02;71.75;102535.72;5151084;28;20150;-81
2022/11/11 10:14:08;;;;;;;0.22;0.22;;;;;;;10.08;71.09;102541.00;5125529;28;20065;-81
2022/11/11 10:16:54;;;;;;;0.95;0.77;;;;;;;10.17;70.57;102544.53;5135176;28;20039;-81
2022/11/11 10:19:32;;;;;;;0.52;0.52;;;;;;;10.22;70.66;102537.53;5141541;28;20049;-81
2022/11/11 10:22:24;;;;;;;0.95;0.95;;;;;;;10.23;70.38;102540.19;5139199;28;20512;-81
2022/11/11 10:25:05;;;;;;;0.28;0.28;;;;;;;10.31;70.13;102534.94;5123073;28;20057;-81
2022/11/11 10:27:43;;;;;;;0.85;0.77;;;;;;;10.38;70.29;102538.50;5106537;28;20030;-79
2022/11/11 10:30:24;;;;;;;0.93;0.88;;;;;;;10.44;70.07;102537.66;5141469;28;20035;-80
2022/11/11 10:33:20;;;;;;;0.40;0.40;;;;;;;10.53;69.90;102542.94;5126786;28;20042;-79
2022/11/11 10:35:53;;;;;;;1.85;1.38;;;;;;;10.55;70.34;102542.06;5142063;28;20041;-80
2022/11/11 10:39:00;;;;;;;0.77;0.77;;;;;;;10.58;71.24;102542.94;5124924;28;20038;-80
2022/11/11 10:41:45;;;;;;;4.70;1.33;;;;;;;10.78;71.91;102548.22;5110721;28;20052;-81
2022/11/11 10:44:21;;;;;;;0.40;0.40;;;;;;;10.71;71.40;102539.47;5147022;28;20047;-80
2022/11/11 10:47:12;;;;;;;0.35;0.35;;;;;;;10.73;71.64;102545.59;5161347;28;20066;-79
2022/11/11 10:49:57;;;;;;;0.85;0.85;;;;;;;10.78;71.84;102545.59;5132215;28;20049;-80
2022/11/11 10:52:38;;;;;;;0.50;0.50;;;;;;;10.81;71.75;102546.47;5118459;28;20493;-79
2022/11/11 10:55:37;;;;;;;1.17;0.95;;;;;;;10.89;71.98;102550.88;5121484;28;20059;-81
2022/11/11 10:58:29;;;;;;;2.28;1.20;;;;;;;10.95;71.77;102541.22;5100888;28;20054;-80
2022/11/11 11:01:09;;;;;;;0.52;0.52;;;;;;;11.00;71.60;102543.84;5127968;28;20115;-78
2022/11/11 11:03:44;;;;;;;0.88;0.88;;;;;;;11.03;71.44;102539.47;5121638;28;20062;-79
2022/11/11 11:06:23;;;;;;;3.50;0.85;;;;;;;11.10;71.63;102544.75;5139069;28;20035;-79
2022/11/11 11:09:10;;;;;;;1.45;1.05;;;;;;;11.14;71.33;102546.47;5118573;28;20042;-80
2022/11/11 11:11:48;;;;;;;0.28;0.28;;;;;;;11.20;70.67;102554.34;5154065;28;20045;-79
2022/11/11 11:14:26;;;;;;;1.52;1.42;;;;;;;11.23;70.81;102549.09;5126447;28;20039;-80
2022/11/11 11:17:11;;;;;;;0.30;0.30;;;;;;;11.24;70.93;102542.97;5126882;28;20031;-79
2022/11/11 11:19:42;;;;;;;0.30;0.30;;;;;;;11.27;70.63;102544.72;5136604;28;20102;-79
2022/11/11 11:22:12;;;;;;;0.30;0.30;;;;;;;11.30;70.28;102542.97;5139964;28;20127;-79
2022/11/11 11:24:43;;;;;;;0.30;0.30;;;;;;;11.37;70.42;102542.94;5138636;28;20061;-79
2022/11/11 11:27:25;;;;;;;0.30;0.30;;;;;;;11.38;70.19;102544.72;5140885;28;20117;-79
2022/11/11 11:30:10;;;;;;;0.32;0.32;;;;;;;11.42;70.16;102547.34;5135460;28;20074;-79
2022/11/11 11:33:09;;;;;;;1.65;0.73;;;;;;;11.49;69.88;102541.19;5135632;28;20541;-81
2022/11/11 11:35:44;;;;;;;0.35;0.35;;;;;;;11.50;69.92;102545.56;5160307;28;20045;-78
2022/11/11 11:38:15;;;;;;;0.40;0.40;;;;;;;11.54;68.95;102533.28;5141396;28;20090;-81
2022/11/11 11:40:50;;;;;;;0.40;0.40;;;;;;;11.57;69.30;102535.06;5159540;28;20054;-79
2022/11/11 11:43:25;;;;;;;0.30;0.30;;;;;;;11.62;69.62;102539.41;5115251;28;20042;-79
2022/11/11 11:45:58;;;;;;;0.40;0.40;;;;;;;11.65;68.94;102534.16;5130124;28;20095;-79
2022/11/11 11:48:51;;;;;;;0.52;0.52;;;;;;;11.79;68.72;102533.22;5124176;28;20413;-79
2022/11/11 11:51:34;;;;;;;0.40;0.40;;;;;;;11.80;68.64;102525.34;5123293;28;20383;-79
2022/11/11 11:54:23;;;;;;;0.40;0.40;;;;;;;11.82;68.74;102520.06;5129334;28;20050;-79
2022/11/11 11:57:01;;;;;;;0.32;0.32;;;;;;;11.88;68.72;102514.78;5140460;28;20039;-80
2022/11/11 11:59:34;;;;;;;0.32;0.32;;;;;;;11.93;69.03;102517.41;5122063;28;20510;-79
2022/11/11 12:02:29;;;;;;;0.20;0.20;;;;;;;12.03;68.11;102513.88;5115796;28;20066;-78
2022/11/11 12:05:26;;;;;;;0.55;0.55;;;;;;;12.03;68.69;102507.72;5137924;28;20054;-79
2022/11/11 12:08:16;;;;;;;5.20;1.65;;;;;;;12.07;68.98;102506.84;5109519;28;20045;-79
2022/11/11 12:11:04;;;;;;;3.20;1.40;;;;;;;12.12;69.06;102513.84;5090468;28;20035;-81
2022/11/11 12:14:13;;;;;;;0.40;0.40;;;;;;;12.20;68.68;102505.91;5106142;28;20046;-79
2022/11/11 12:17:07;;;;;;;0.40;0.40;;;;;;;12.25;68.39;102497.97;5107825;28;20038;-79
2022/11/11 12:19:54;;;;;;;0.30;0.30;;;;;;;12.35;68.78;102502.31;5131343;28;20038;-80
2022/11/11 12:22:31;;;;;;;0.28;0.28;;;;;;;12.36;68.51;102497.91;5140462;28;20538;-78
2022/11/11 12:25:11;;;;;;;0.30;0.30;;;;;;;12.47;67.58;102489.97;5135450;28;20031;-79
2022/11/11 12:27:53;;;;;;;0.50;0.50;;;;;;;12.46;68.56;102494.34;5153654;28;20026;-80
2022/11/11 12:30:28;;;;;;;0.50;0.50;;;;;;;12.52;68.59;102490.81;5126685;28;20054;-80
2022/11/11 12:33:32;;;;;;;0.73;0.73;;;;;;;12.57;69.05;102489.00;5095664;28;20069;-80
2022/11/11 12:36:19;;;;;;;0.20;0.20;;;;;;;12.62;68.71;102488.97;5141581;28;20023;-81
2022/11/11 12:38:58;;;;;;;0.95;0.90;;;;;;;12.66;68.82;102488.94;5117739;28;20943;-81
2022/11/11 12:41:31;;;;;;;0.40;0.40;;;;;;;12.68;68.47;102486.31;5133755;28;20085;-80
2022/11/11 12:44:13;;;;;;;0.30;0.30;;;;;;;12.68;68.34;102476.63;5108042;28;20047;-80
2022/11/11 12:46:44;;;;;;;0.20;0.20;;;;;;;12.78;68.13;102473.94;5100643;28;20117;-81
2022/11/11 12:49:56;;;;;;;0.55;0.55;;;;;;;12.84;67.23;102474.78;5102303;28;20134;-80
2022/11/11 12:52:42;;;;;;;1.38;1.02;;;;;;;12.87;68.05;102472.09;5137403;28;20049;-80
2022/11/11 12:55:13;;;;;;;0.63;0.63;;;;;;;12.87;68.18;102472.09;5119151;28;20189;-80
2022/11/11 12:58:08;;;;;;;0.60;0.60;;;;;;;12.96;67.94;102470.25;5133442;28;20091;-81
2022/11/11 13:01:37;;;;;;;0.40;0.40;;;;;;;13.00;68.12;102466.72;5138847;28;20022;-81
2022/11/11 13:04:48;;;;;;;0.47;0.47;;;;;;;13.07;68.05;102469.28;5093263;28;20047;-80
2022/11/11 13:07:30;;;;;;;0.50;0.50;;;;;;;13.11;67.76;102464.84;5121373;28;20166;-81
2022/11/11 13:10:22;;;;;;;1.02;1.02;;;;;;;13.16;67.62;102464.78;5103399;28;20061;-80
2022/11/11 13:12:55;;;;;;;2.03;0.65;;;;;;;13.19;68.23;102457.72;5142258;28;20039;-80
2022/11/11 13:15:26;;;;;;;;;;;;;;;13.26;67.46;102455.06;5111665;28;20070;-80
2022/11/11 13:18:01;;;;;;;1.88;0.85;;;;;;;13.27;67.20;102464.69;5122250;28;20414;-80
2022/11/11 13:21:10;;;;;;;1.10;0.50;;;;;;;13.28;67.53;102453.25;5127732;28;20046;-81
2022/11/11 13:23:40;;;;;;;0.32;0.32;;;;;;;13.32;67.58;102468.16;5118520;28;20055;-79